Архив погоды в Гайнах

Метеограмма Гайны
Вторник, 18 Сентября
Время местн. Темп Ветер Видим Явления Облачность нижн/средн/верх Атм. давл. Влжн Точка росы ВНГО R Сост. почвы Tg s
Напр Скр Прв ур.ст ур.м изм
20:00 +8.4° В,Ю-В 1 - 20 км - облачно 739 756 -1.3 86% +6.2° 1 км 0 - - -
17:00 +13.1° Ю 2 - 20 км - преимущественно облачно 740 757 -1.8 54% +4.1° 1 км - - - -
14:00 +11.9° Ю,Ю-В 1 - 20 км - преимущественно облачно 742 759 -1.1 60% +4.3° 600 м - - - -
11:00 +10.4° Ю,Ю-З 1 - 20 км - облачно с прояснениями 743 760 -0.4 77% +6.6° 600 м - - - -
08:00 +6.3° Ю-З 3 - 20 км - облачно 743 761 +0.2 99% +6.2° 600 м 0.8 Влажная (без луж) +6° -
05:00 +6.7° З 1 - 20 км - преимущественно облачно 743 761 +1 99% +6.6° 600 м - - - -
02:00 +7.2° З 3 - 20 км - облачно 742 760 +2.6 100% +7.2° 600 м - - - -
Понедельник, 17 Сентября
Время местн. Темп Ветер Видим Явления Облачность нижн/средн/верх Атм. давл. Влжн Точка росы ВНГО R Сост. почвы Tg s
Напр Скр Прв ур.ст ур.м изм
23:00 +9.9° З 4 10 20 км небо без изменений {ливневые осадки} облачно 739 757 +2.6 99% +9.8° 600 м - - - -
20:00 +11.2° Ю-З 3 - 10 км слабый ливневый дождь облачно 737 754 -0.8 100% +11.2° 600 м 7 - - -
17:00 +16.7° Ю,Ю-З 5 10 20 км - облачно 738 755 -0.1 56% +8° 1 км - - - -
14:00 +18.8° Ю 5 10 20 км - облачно 738 755 -1.7 50% +8.2° 2.5 км - - - -
11:00 +12.8° Ю 4 - 20 км - облачно 739 757 -1.9 69% +7.3° 2.5 км - - - -
08:00 +9.2° Ю-В 3 - 20 км - облачно с прояснениями 741 759 -2.2 85% +6.8° 1 км 0 Влажная (без луж) +8° -
05:00 +10.3° Ю-В 2 - 20 км - облачно с прояснениями 743 761 -1.4 79% +6.9° 2.5 км - - - -
02:00 +11° Ю 3 - 20 км - облачно с прояснениями 745 762 -1.4 78% +7.3° более 2.5 км - - - -
Воскресенье, 16 Сентября
Время местн. Темп Ветер Видим Явления Облачность нижн/средн/верх Атм. давл. Влжн Точка росы ВНГО R Сост. почвы Tg s
Напр Скр Прв ур.ст ур.м изм
23:00 +11.1° Ю 3 - 20 км - переменная облачность 746 764 -0.6 80% +7.7° более 2.5 км - - - -
20:00 +12.5° Ю-В 2 - 20 км - облачно с прояснениями 747 764 -0.9 74% +8° 1 км 0 - - -
17:00 +16.5° Ю 2 - 20 км - облачно 748 765 -0.9 54% +7.2° 1 км - - - -
14:00 +15.8° штиль 0 - 20 км - облачно 749 766 -0.5 57% +7.3° 1 км - - - -
11:00 +13.5° Ю,Ю-З 1 - 20 км - облачно 749 767 +0.2 77% +9.5° более 2.5 км - - - -
08:00 +6.9° З 1 - 20 км - переменная облачность 749 767 +0.3 100% +6.9° более 2.5 км 0.3 Влажная (без луж) +4° -
05:00 +6.7° З,Ю-З 2 - 20 км - переменная облачность 749 767 +0.3 100% +6.7° 1 км - - - -
02:00 +7.8° З 2 - 20 км - облачно с прояснениями 748 766 +0.4 100% +7.8° 1 км - - - -
Суббота, 15 Сентября
Время местн. Темп Ветер Видим Явления Облачность нижн/средн/верх Атм. давл. Влжн Точка росы ВНГО R Сост. почвы Tg s
Напр Скр Прв ур.ст ур.м изм
23:00 +8.6° Ю-З 2 - 20 км небо без изменений {ливневые осадки} облачно с прояснениями 748 766 +0.2 100% +8.6° 1 км - - - -
20:00 +8.5° Ю,Ю-З 1 - 20 км небо без изменений {ливневые осадки} облачно с прояснениями 748 766 +0.2 99% +8.4° 1 км 0 - - -
17:00 +14.4° Ю-З 1 - 20 км - облачно с прояснениями 747 765 +0.1 69% +8.7° 1 км - - - -